createdAt,value
2018-05-01T00:01:35.877Z,1.03
2018-05-01T00:04:03.489Z,0.90
2018-05-01T00:06:31.151Z,0.70
2018-05-01T00:08:58.669Z,0.90
2018-05-01T00:11:26.174Z,0.73
2018-05-01T00:13:53.698Z,0.80
2018-05-01T00:16:21.201Z,0.83
2018-05-01T00:18:48.729Z,0.70
2018-05-01T00:21:16.230Z,0.60
2018-05-01T00:23:43.768Z,0.70
2018-05-01T00:26:11.282Z,2.27
2018-05-01T00:28:38.810Z,0.90
2018-05-01T00:31:06.323Z,1.10
2018-05-01T00:33:33.957Z,0.83
2018-05-01T00:36:01.616Z,0.90
2018-05-01T00:38:29.149Z,0.70
2018-05-01T00:40:57.144Z,0.80
2018-05-01T00:43:24.805Z,0.90
2018-05-01T00:45:52.466Z,0.80
2018-05-01T00:48:19.968Z,0.70
2018-05-01T00:50:47.494Z,0.80
2018-05-01T00:53:15.047Z,0.70
2018-05-01T00:55:42.573Z,1.07
2018-05-01T00:58:10.067Z,1.03
2018-05-01T01:00:37.593Z,0.77
2018-05-01T01:03:05.262Z,0.70
2018-05-01T01:05:32.789Z,0.70
2018-05-01T01:08:00.695Z,0.93
2018-05-01T01:10:28.216Z,1.00
2018-05-01T01:12:55.736Z,0.80
2018-05-01T01:15:23.337Z,0.60
2018-05-01T01:17:50.853Z,0.70
2018-05-01T01:20:18.356Z,0.80
2018-05-01T01:22:45.878Z,0.90
2018-05-01T01:25:13.986Z,0.57
2018-05-01T01:27:41.505Z,0.93
2018-05-01T01:30:09.397Z,0.90
2018-05-01T01:32:36.922Z,0.90
2018-05-01T01:35:03.937Z,0.73
2018-05-01T01:37:30.965Z,0.60
2018-05-01T01:39:57.998Z,0.80
2018-05-01T01:42:25.021Z,0.60
2018-05-01T01:44:52.037Z,1.00
2018-05-01T01:47:19.073Z,0.93
2018-05-01T01:49:46.090Z,0.60
2018-05-01T01:52:13.111Z,0.80
2018-05-01T01:54:40.154Z,0.90
2018-05-01T01:57:07.176Z,1.00
2018-05-01T01:59:34.217Z,0.67
2018-05-01T02:02:01.237Z,0.90
2018-05-01T02:04:28.281Z,0.70
2018-05-01T02:06:55.291Z,1.00
2018-05-01T02:09:22.316Z,0.90
2018-05-01T02:11:49.328Z,1.10
2018-05-01T02:14:16.770Z,0.80
2018-05-01T02:16:43.789Z,0.90
2018-05-01T02:19:10.838Z,0.60
2018-05-01T02:21:37.861Z,1.17
2018-05-01T02:24:04.901Z,1.23
2018-05-01T02:26:31.916Z,1.30
2018-05-01T02:28:58.925Z,0.80
2018-05-01T02:31:25.966Z,1.10
2018-05-01T02:33:52.981Z,0.70
2018-05-01T02:36:20.011Z,0.80
2018-05-01T02:38:47.023Z,0.70
2018-05-01T02:41:14.078Z,1.03
2018-05-01T02:43:41.108Z,0.70
2018-05-01T02:46:08.801Z,1.20
2018-05-01T02:48:35.820Z,0.70
2018-05-01T02:51:03.415Z,0.80
2018-05-01T02:56:52.233Z,0.67
2018-05-01T02:59:19.818Z,0.90
2018-05-01T03:01:46.865Z,0.70
2018-05-01T03:04:13.880Z,0.70
2018-05-01T03:06:40.925Z,0.70
2018-05-01T03:09:08.008Z,0.70
2018-05-01T03:11:35.057Z,0.70
2018-05-01T03:14:02.078Z,0.80
2018-05-01T03:16:29.118Z,0.70
2018-05-01T03:18:56.134Z,0.73
2018-05-01T03:21:23.145Z,1.23
2018-05-01T03:23:50.171Z,0.90
2018-05-01T03:26:17.189Z,0.73
2018-05-01T03:28:44.467Z,0.70
2018-05-01T03:31:11.485Z,0.90
2018-05-01T03:33:38.519Z,0.80
2018-05-01T03:36:05.541Z,0.67
2018-05-01T03:38:32.587Z,0.70
2018-05-01T03:40:59.601Z,0.67
2018-05-01T03:43:26.623Z,0.77
2018-05-01T03:45:53.633Z,0.53
2018-05-01T03:48:21.079Z,0.70
2018-05-01T03:50:48.096Z,0.57
2018-05-01T03:53:15.181Z,0.67
2018-05-01T03:55:42.768Z,0.80
2018-05-01T03:58:09.780Z,0.70
2018-05-01T04:00:36.809Z,0.70
2018-05-01T04:03:03.826Z,1.00
2018-05-01T04:05:30.962Z,0.90
2018-05-01T04:07:57.977Z,0.97
2018-05-01T04:10:25.005Z,0.60
2018-05-01T04:12:52.016Z,1.00
2018-05-01T04:15:19.052Z,0.67
2018-05-01T04:17:46.072Z,0.63
2018-05-01T04:20:13.121Z,0.80
2018-05-01T04:22:40.262Z,0.87
2018-05-01T04:25:07.293Z,1.00
2018-05-01T04:27:34.300Z,0.70
2018-05-01T04:30:01.345Z,0.70
2018-05-01T04:32:28.403Z,0.60
2018-05-01T04:34:55.417Z,0.90
2018-05-01T04:37:22.457Z,0.90
2018-05-01T04:39:49.470Z,0.90
2018-05-01T04:42:16.513Z,0.60
2018-05-01T04:44:43.524Z,0.80
2018-05-01T04:47:11.103Z,0.80
2018-05-01T04:49:38.128Z,1.10
2018-05-01T04:52:05.165Z,0.90
2018-05-01T04:54:32.643Z,0.80
2018-05-01T04:56:59.668Z,0.77
2018-05-01T04:59:26.673Z,0.80
2018-05-01T05:01:53.728Z,0.90
2018-05-01T05:04:20.741Z,0.70
2018-05-01T05:06:47.873Z,0.80
2018-05-01T05:09:14.929Z,1.00
2018-05-01T05:11:41.997Z,0.80
2018-05-01T05:14:09.037Z,0.70
2018-05-01T05:16:36.067Z,0.70
2018-05-01T05:19:03.292Z,0.60
2018-05-01T05:21:30.313Z,1.30
2018-05-01T05:23:57.358Z,0.67
2018-05-01T05:26:24.369Z,0.80
2018-05-01T05:28:51.477Z,0.80
2018-05-01T05:31:18.497Z,1.00
2018-05-01T05:33:45.569Z,0.73
2018-05-01T05:36:12.588Z,1.17
2018-05-01T05:38:39.608Z,0.80
2018-05-01T05:41:06.633Z,0.80
2018-05-01T05:43:33.657Z,0.83
2018-05-01T05:46:00.700Z,0.90
2018-05-01T05:48:27.720Z,0.80
2018-05-01T05:50:54.881Z,0.73
2018-05-01T05:53:21.899Z,0.87
2018-05-01T05:55:48.940Z,0.70
2018-05-01T05:58:15.954Z,0.70
2018-05-01T06:00:43.001Z,0.70
2018-05-01T06:03:10.017Z,0.80
2018-05-01T06:05:37.064Z,0.80
2018-05-01T06:08:04.073Z,0.73
2018-05-01T06:10:31.094Z,0.80
2018-05-01T06:12:58.688Z,0.80
2018-05-01T06:15:25.697Z,1.03
2018-05-01T06:17:53.272Z,0.87
2018-05-01T06:20:20.277Z,1.00
2018-05-01T06:22:47.308Z,0.80
2018-05-01T06:25:14.334Z,0.97
2018-05-01T06:27:41.373Z,1.07
2018-05-01T06:30:08.394Z,0.90
2018-05-01T06:32:35.437Z,1.17
2018-05-01T06:35:02.464Z,0.83
2018-05-01T06:37:29.553Z,1.10
2018-05-01T06:39:56.529Z,1.00
2018-05-01T06:42:23.573Z,1.07
2018-05-01T06:44:50.584Z,0.80
2018-05-01T06:47:17.712Z,0.80
2018-05-01T06:49:44.916Z,1.10
2018-05-01T06:52:11.925Z,0.90
2018-05-01T06:54:38.959Z,0.97
2018-05-01T06:57:05.988Z,0.87
2018-05-01T06:59:33.013Z,0.97
2018-05-01T07:02:00.603Z,1.00
2018-05-01T07:04:27.744Z,0.82
2018-05-01T07:06:54.669Z,0.73
2018-05-01T07:09:21.701Z,0.90
2018-05-01T07:11:48.714Z,0.95
2018-05-01T07:14:16.217Z,1.00
2018-05-01T07:16:43.220Z,1.10
2018-05-01T07:19:10.269Z,0.93
2018-05-01T07:21:37.288Z,1.25
2018-05-01T07:24:04.308Z,1.00
2018-05-01T07:26:31.347Z,0.88
2018-05-01T07:28:58.361Z,0.90
2018-05-01T07:31:25.410Z,0.80
2018-05-01T07:33:52.426Z,0.98
2018-05-01T07:36:19.461Z,0.60
2018-05-01T07:38:46.497Z,0.70
2018-05-01T07:41:13.545Z,0.88
2018-05-01T07:43:40.575Z,0.80
2018-05-01T07:46:07.609Z,0.65
2018-05-01T07:48:34.612Z,0.80
2018-05-01T07:51:01.649Z,0.85
2018-05-01T07:53:28.705Z,0.60
2018-05-01T07:55:55.780Z,0.73
2018-05-01T07:58:22.801Z,0.60
2018-05-01T08:00:49.818Z,0.70
2018-05-01T08:03:16.861Z,0.77
2018-05-01T08:05:43.869Z,0.90
2018-05-01T08:08:10.897Z,0.75
2018-05-01T08:10:37.913Z,0.62
2018-05-01T08:13:04.965Z,0.73
2018-05-01T08:15:31.989Z,0.60
2018-05-01T08:18:00.000Z,0.68
2018-05-01T08:20:27.025Z,0.50
2018-05-01T08:22:54.673Z,0.60
2018-05-01T08:25:21.686Z,0.60
2018-05-01T08:27:48.728Z,0.70
2018-05-01T08:30:15.757Z,0.55
2018-05-01T08:32:42.801Z,0.65
2018-05-01T08:35:09.820Z,0.50
2018-05-01T08:37:36.873Z,0.45
2018-05-01T08:40:04.045Z,0.40
2018-05-01T08:42:31.089Z,0.40
2018-05-01T08:44:58.304Z,0.35
2018-05-01T08:47:25.357Z,0.30
2018-05-01T08:49:52.403Z,0.40
2018-05-01T08:52:19.419Z,0.32
2018-05-01T08:54:46.445Z,0.40
2018-05-01T08:57:13.514Z,0.40
2018-05-01T08:59:40.567Z,0.32
2018-05-01T09:02:07.590Z,0.10
2018-05-01T09:04:34.665Z,0.20
2018-05-01T09:07:01.707Z,0.30
2018-05-01T09:09:28.775Z,0.20
2018-05-01T09:11:55.934Z,0.20
2018-05-01T09:14:22.993Z,0.20
2018-05-01T09:16:50.096Z,0.20
2018-05-01T09:19:17.116Z,0.17
2018-05-01T09:21:44.385Z,0.28
2018-05-01T09:24:11.414Z,0.20
2018-05-01T09:26:38.458Z,0.20
2018-05-01T09:29:05.610Z,0.22
2018-05-01T09:31:32.641Z,0.20
2018-05-01T09:33:59.697Z,0.28
2018-05-01T09:36:26.733Z,0.10
2018-05-01T09:38:53.733Z,0.20
2018-05-01T09:41:20.837Z,0.20
2018-05-01T09:43:47.881Z,0.20
2018-05-01T09:46:15.028Z,0.20
2018-05-01T09:48:42.081Z,0.30
2018-05-01T09:51:09.214Z,0.30
2018-05-01T09:53:36.737Z,0.30
2018-05-01T09:56:04.729Z,0.30
2018-05-01T09:58:32.290Z,0.20
2018-05-01T10:00:59.885Z,0.30
2018-05-01T10:03:27.427Z,0.20
2018-05-01T10:05:55.055Z,0.20
2018-05-01T10:08:22.595Z,0.40
2018-05-01T10:10:50.122Z,0.30
2018-05-01T10:13:17.673Z,0.25
2018-05-01T10:15:45.190Z,0.35
2018-05-01T10:18:12.724Z,0.40
2018-05-01T10:20:40.241Z,0.40
2018-05-01T10:23:07.861Z,0.40
2018-05-01T10:25:35.401Z,0.20
2018-05-01T10:28:02.916Z,0.40
2018-05-01T10:30:30.701Z,0.40
2018-05-01T10:32:58.606Z,0.20
2018-05-01T10:35:26.125Z,0.25
2018-05-01T10:37:53.633Z,0.40
2018-05-01T10:40:21.267Z,0.20
2018-05-01T10:42:48.772Z,0.20
2018-05-01T10:45:16.382Z,0.40
2018-05-01T10:47:44.025Z,0.30
2018-05-01T10:50:11.893Z,0.30
2018-05-01T10:52:39.409Z,0.17
2018-05-01T10:55:07.013Z,0.37
2018-05-01T10:57:34.525Z,0.32
2018-05-01T11:00:02.029Z,0.30
2018-05-01T11:02:29.551Z,0.20
2018-05-01T11:04:57.236Z,0.40
2018-05-01T11:07:24.769Z,0.40
2018-05-01T11:09:52.664Z,0.30
2018-05-01T11:12:20.189Z,0.32
2018-05-01T11:14:47.717Z,0.30
2018-05-01T11:17:15.256Z,0.40
2018-05-01T11:19:42.765Z,0.40
2018-05-01T11:22:10.308Z,0.40
2018-05-01T11:24:37.942Z,0.40
2018-05-01T11:27:05.453Z,0.40
2018-05-01T11:29:33.007Z,0.40
2018-05-01T11:32:00.545Z,0.37
2018-05-01T11:34:28.109Z,0.40
2018-05-01T11:36:55.963Z,0.40
2018-05-01T11:39:23.482Z,0.40
2018-05-01T11:41:51.534Z,0.47
2018-05-01T11:44:19.061Z,0.45
2018-05-01T11:46:46.618Z,0.40
2018-05-01T11:49:14.146Z,0.40
2018-05-01T11:51:42.317Z,0.50
2018-05-01T11:54:09.886Z,0.60
2018-05-01T11:56:37.397Z,0.50
2018-05-01T11:59:04.932Z,0.60
2018-05-01T12:01:32.513Z,0.50
2018-05-01T12:04:00.049Z,0.60
2018-05-01T12:06:27.549Z,0.37
2018-05-01T12:08:55.548Z,0.60
2018-05-01T12:11:23.061Z,0.40
2018-05-01T12:13:50.997Z,0.30
2018-05-01T12:16:18.497Z,0.50
2018-05-01T12:18:46.190Z,0.40
2018-05-01T12:21:13.841Z,0.40
2018-05-01T12:23:41.427Z,0.40
2018-05-01T12:26:09.069Z,0.50
2018-05-01T12:28:36.573Z,0.40
2018-05-01T12:31:04.101Z,0.52
2018-05-01T12:33:31.621Z,0.40
2018-05-01T12:35:59.149Z,0.60
2018-05-01T12:38:26.649Z,0.50
2018-05-01T12:40:54.161Z,0.45
2018-05-01T12:43:22.157Z,0.50
2018-05-01T12:45:49.821Z,0.57
2018-05-01T12:48:17.409Z,0.60
2018-05-01T12:50:45.257Z,0.55
2018-05-01T12:53:12.784Z,0.68
2018-05-01T12:55:40.329Z,0.50
2018-05-01T12:58:07.826Z,0.60
2018-05-01T13:00:35.366Z,0.50
2018-05-01T13:03:03.014Z,0.50
2018-05-01T13:05:30.673Z,0.70
2018-05-01T13:07:58.172Z,0.62
2018-05-01T13:10:25.705Z,0.80
2018-05-01T13:12:53.243Z,0.52
2018-05-01T13:15:20.771Z,0.60
2018-05-01T13:17:48.301Z,0.70
2018-05-01T13:20:15.842Z,0.90
2018-05-01T13:22:43.358Z,0.80
2018-05-01T13:25:10.859Z,0.50
2018-05-01T13:27:38.405Z,0.70
2018-05-01T13:30:06.036Z,0.93
2018-05-01T13:32:33.586Z,0.77
2018-05-01T13:35:01.097Z,0.70
2018-05-01T13:37:28.636Z,0.60
2018-05-01T13:39:56.137Z,0.80
2018-05-01T13:42:23.699Z,0.88
2018-05-01T13:44:51.204Z,0.75
2018-05-01T13:47:18.768Z,0.70
2018-05-01T13:49:46.471Z,1.00
2018-05-01T13:52:14.013Z,0.90
2018-05-01T13:54:41.517Z,0.80
2018-05-01T13:57:09.148Z,1.02
2018-05-01T13:59:36.660Z,0.80
2018-05-01T14:02:04.673Z,0.70
2018-05-01T14:04:32.205Z,0.80
2018-05-01T14:06:59.721Z,1.08
2018-05-01T14:09:27.243Z,0.77
2018-05-01T14:11:54.764Z,1.00
2018-05-01T14:14:22.293Z,0.85
2018-05-01T14:16:49.788Z,0.90
2018-05-01T14:19:17.399Z,1.00
2018-05-01T14:21:44.825Z,0.90
2018-05-01T14:24:12.345Z,1.00
2018-05-01T14:26:40.241Z,1.00
2018-05-01T14:29:07.990Z,0.80
2018-05-01T14:31:35.643Z,0.85
2018-05-01T14:34:03.274Z,0.90
2018-05-01T14:36:30.812Z,0.80
2018-05-01T14:38:58.308Z,0.88
2018-05-01T14:41:25.864Z,1.15
2018-05-01T14:43:53.375Z,0.90
2018-05-01T14:46:20.900Z,0.90
2018-05-01T14:48:48.405Z,0.93
2018-05-01T14:51:15.936Z,0.90
2018-05-01T14:53:43.452Z,1.10
2018-05-01T14:56:11.010Z,1.00
2018-05-01T14:58:38.511Z,1.10
2018-05-01T15:01:06.132Z,1.30
2018-05-01T15:03:33.633Z,0.98
2018-05-01T15:06:01.145Z,1.23
2018-05-01T15:08:28.642Z,1.00
2018-05-01T15:10:56.190Z,1.75
2018-05-01T15:13:23.692Z,1.30
2018-05-01T15:15:51.207Z,1.25
2018-05-01T15:18:18.733Z,1.02
2018-05-01T15:20:46.258Z,1.10
2018-05-01T15:23:13.788Z,1.10
2018-05-01T15:25:41.289Z,1.10
2018-05-01T15:28:08.813Z,1.27
2018-05-01T15:30:36.310Z,1.12
2018-05-01T15:33:04.037Z,1.00
2018-05-01T15:35:31.706Z,1.10
2018-05-01T15:37:59.229Z,1.20
2018-05-01T15:40:27.234Z,1.20
2018-05-01T15:42:54.775Z,1.35
2018-05-01T15:45:22.280Z,1.20
2018-05-01T15:47:49.801Z,1.02
2018-05-01T15:50:17.298Z,1.40
2018-05-01T15:52:44.821Z,1.00
2018-05-01T15:55:12.341Z,1.17
2018-05-01T15:57:39.872Z,1.05
2018-05-01T16:00:07.389Z,1.33
2018-05-01T16:02:34.893Z,1.12
2018-05-01T16:05:02.571Z,0.95
2018-05-01T16:07:30.241Z,1.30
2018-05-01T16:09:57.773Z,1.30
2018-05-01T16:12:25.773Z,1.08
2018-05-01T16:14:53.430Z,1.12
2018-05-01T16:17:21.090Z,1.05
2018-05-01T16:19:48.628Z,1.30
2018-05-01T16:22:16.225Z,1.17
2018-05-01T16:24:43.766Z,1.10
2018-05-01T16:27:11.277Z,1.00
2018-05-01T16:29:39.182Z,1.00
2018-05-01T16:32:06.678Z,1.00
2018-05-01T16:34:34.397Z,1.30
2018-05-01T16:37:01.921Z,1.10
2018-05-01T16:39:29.578Z,1.10
2018-05-01T16:41:57.105Z,1.10
2018-05-01T16:44:24.709Z,1.40
2018-05-01T16:46:52.225Z,1.40
2018-05-01T16:49:19.728Z,1.20
2018-05-01T16:51:47.324Z,1.95
2018-05-01T16:54:14.846Z,1.52
2018-05-01T16:56:42.377Z,1.90
2018-05-01T16:59:10.041Z,1.73
2018-05-01T17:01:37.565Z,1.75
2018-05-01T17:04:05.069Z,1.60
2018-05-01T17:06:32.595Z,1.83
2018-05-01T17:09:00.276Z,1.90
2018-05-01T17:11:27.901Z,1.85
2018-05-01T17:13:55.449Z,1.87
2018-05-01T17:16:22.949Z,3.03
2018-05-01T17:18:50.510Z,1.80
2018-05-01T17:21:18.144Z,1.80
2018-05-01T17:23:45.664Z,1.85
2018-05-01T17:26:13.281Z,1.50
2018-05-01T17:28:40.925Z,1.50
2018-05-01T17:31:08.445Z,1.50
2018-05-01T17:33:35.962Z,1.90
2018-05-01T17:36:03.501Z,1.40
2018-05-01T17:38:31.025Z,1.85
2018-05-01T17:40:59.023Z,2.00
2018-05-01T17:43:26.548Z,2.40
2018-05-01T17:45:54.449Z,2.37
2018-05-01T17:48:21.978Z,2.10
2018-05-01T17:50:49.496Z,2.15
2018-05-01T17:53:17.105Z,1.83
2018-05-01T17:55:44.651Z,1.65
2018-05-01T17:58:12.153Z,2.03
2018-05-01T18:00:39.679Z,2.00
2018-05-01T18:03:07.187Z,1.77
2018-05-01T18:05:34.728Z,2.05
2018-05-01T18:08:02.241Z,1.77
2018-05-01T18:10:29.771Z,1.65
2018-05-01T18:12:57.667Z,2.05
2018-05-01T18:15:25.197Z,1.87
2018-05-01T18:17:52.692Z,1.80
2018-05-01T18:20:20.210Z,2.30
2018-05-01T18:22:47.713Z,2.00
2018-05-01T18:25:15.265Z,2.53
2018-05-01T18:27:42.777Z,1.95
2018-05-01T18:30:10.316Z,1.63
2018-05-01T18:32:38.220Z,1.90
2018-05-01T18:35:05.781Z,1.85
2018-05-01T18:37:33.285Z,1.87
2018-05-01T18:40:00.796Z,1.55
2018-05-01T18:42:28.333Z,2.15
2018-05-01T18:44:55.844Z,1.60
2018-05-01T18:47:23.369Z,1.83
2018-05-01T18:49:50.909Z,1.77
2018-05-01T18:52:18.429Z,1.48
2018-05-01T18:54:45.931Z,2.10
2018-05-01T18:57:13.448Z,1.20
2018-05-01T18:59:41.354Z,1.17
2018-05-01T19:02:08.877Z,1.15
2018-05-01T19:04:36.622Z,1.40
2018-05-01T19:07:04.200Z,1.33
2018-05-01T19:09:31.717Z,1.20
2018-05-01T19:11:59.250Z,1.27
2018-05-01T19:14:26.766Z,0.82
2018-05-01T19:16:54.364Z,1.40
2018-05-01T19:19:21.885Z,1.20
2018-05-01T19:21:49.549Z,1.30
2018-05-01T19:24:17.076Z,1.37
2018-05-01T19:26:45.161Z,1.40
2018-05-01T19:29:12.709Z,1.30
2018-05-01T19:31:40.215Z,1.50
2018-05-01T19:34:07.860Z,1.20
2018-05-01T19:36:35.505Z,1.20
2018-05-01T19:39:03.029Z,1.10
2018-05-01T19:41:30.933Z,1.10
2018-05-01T19:43:58.485Z,1.37
2018-05-01T19:46:25.986Z,1.40
2018-05-01T19:48:53.605Z,1.10
2018-05-01T19:51:21.264Z,0.95
2018-05-01T19:53:48.901Z,1.57
2018-05-01T19:56:16.417Z,2.00
2018-05-01T19:58:43.933Z,1.67
2018-05-01T20:01:11.684Z,1.60
2018-05-01T20:03:39.189Z,1.50
2018-05-01T20:06:06.725Z,1.23
2018-05-01T20:08:34.222Z,1.27
2018-05-01T20:11:01.910Z,1.20
2018-05-01T20:13:29.405Z,1.50
2018-05-01T20:15:56.940Z,1.50
2018-05-01T20:18:24.449Z,1.10
2018-05-01T20:20:52.131Z,1.40
2018-05-01T20:23:19.636Z,1.30
2018-05-01T20:25:47.248Z,1.13
2018-05-01T20:28:14.761Z,1.20
2018-05-01T20:30:43.143Z,2.00
2018-05-01T20:33:10.833Z,1.20
2018-05-01T20:35:38.365Z,1.33
2018-05-01T20:38:05.936Z,1.10
2018-05-01T20:40:33.612Z,1.25
2018-05-01T20:43:01.131Z,1.12
2018-05-01T20:45:29.072Z,1.47
2018-05-01T20:47:56.573Z,1.17
2018-05-01T20:50:24.074Z,0.97
2018-05-01T20:52:51.590Z,1.13
2018-05-01T20:55:19.485Z,1.13
2018-05-01T20:57:47.017Z,1.20
2018-05-01T21:00:14.519Z,1.07
2018-05-01T21:02:42.118Z,0.80
2018-05-01T21:05:09.625Z,0.90
2018-05-01T21:07:37.153Z,0.80
2018-05-01T21:10:04.653Z,1.00
2018-05-01T21:12:32.199Z,1.10
2018-05-01T21:15:00.114Z,0.90
2018-05-01T21:17:27.637Z,0.90
2018-05-01T21:19:55.157Z,1.50
2018-05-01T21:22:22.682Z,0.80
2018-05-01T21:24:50.176Z,0.83
2018-05-01T21:27:17.881Z,1.00
2018-05-01T21:29:45.373Z,0.93
2018-05-01T21:32:12.901Z,1.00
2018-05-01T21:34:40.412Z,1.00
2018-05-01T21:37:07.917Z,0.97
2018-05-01T21:39:35.563Z,0.90
2018-05-01T21:42:03.228Z,0.80
2018-05-01T21:44:30.753Z,1.10
2018-05-01T21:46:58.651Z,1.07
2018-05-01T21:49:26.218Z,0.70
2018-05-01T21:51:53.737Z,0.80
2018-05-01T21:54:21.655Z,0.80
2018-05-01T21:56:49.165Z,0.83
2018-05-01T21:59:17.050Z,0.80
2018-05-01T22:01:44.557Z,0.83
2018-05-01T22:04:12.087Z,0.70
2018-05-01T22:06:39.606Z,0.80
2018-05-01T22:09:07.136Z,1.30
2018-05-01T22:11:35.045Z,1.03
2018-05-01T22:14:02.580Z,1.00
2018-05-01T22:16:30.091Z,0.90
2018-05-01T22:18:57.598Z,1.00
2018-05-01T22:21:25.121Z,0.90
2018-05-01T22:23:53.227Z,0.90
2018-05-01T22:26:20.753Z,1.23
2018-05-01T22:28:48.667Z,0.90
2018-05-01T22:31:16.209Z,0.80
2018-05-01T22:33:43.723Z,0.80
2018-05-01T22:36:11.633Z,0.70
2018-05-01T22:38:39.150Z,0.80
2018-05-01T22:41:06.679Z,0.90
2018-05-01T22:43:34.176Z,0.90
2018-05-01T22:46:01.778Z,1.00
2018-05-01T22:48:29.286Z,0.77
2018-05-01T22:50:56.812Z,0.77
2018-05-01T22:53:24.317Z,0.83
2018-05-01T22:55:51.864Z,0.60
2018-05-01T22:58:19.370Z,1.00
2018-05-01T23:00:46.883Z,0.97
2018-05-01T23:03:14.410Z,0.70
2018-05-01T23:05:42.413Z,0.80
2018-05-01T23:08:09.939Z,0.60
2018-05-01T23:10:37.499Z,0.80
2018-05-01T23:13:05.022Z,0.70
2018-05-01T23:15:32.519Z,0.90
2018-05-01T23:18:00.049Z,1.20
2018-05-01T23:20:27.740Z,0.90
2018-05-01T23:22:55.405Z,0.70
2018-05-01T23:25:22.925Z,0.70
2018-05-01T23:27:50.874Z,0.73
2018-05-01T23:30:18.562Z,0.70
2018-05-01T23:32:46.225Z,0.60
2018-05-01T23:35:13.725Z,0.70
2018-05-01T23:37:41.251Z,0.70
2018-05-01T23:40:08.748Z,0.70
2018-05-01T23:42:36.300Z,0.70
2018-05-01T23:45:03.904Z,0.70
2018-05-01T23:47:31.404Z,0.70
2018-05-01T23:49:58.937Z,0.90
2018-05-01T23:52:26.433Z,0.80
2018-05-01T23:54:53.965Z,0.60
2018-05-01T23:57:21.478Z,0.97
2018-05-01T23:59:49.000Z,0.70
